Terminal Aerodrome Forecast
Issued by NWS Green Bay, WI

Home | Current Version | Previous Version | Graphics & Text | Print | Product List | Glossary Off
Versions: 1 2 3 4 5 6 7 8 9 10 11 12 13 14 15 16 17 18 19 20 21 22 23 24 25 26 27 28 29 30 31 32 33 34 35 36 37 38 39 40 41 42 43 44 45 46 47 48

000
FTUS43 KGRB 192300
TAFGRB
TAF
KGRB 192335Z 2000/2024 21009KT P6SM SCT030 BKN100
     FM200300 22005KT P6SM SCT030 SCT100
     FM200700 27006KT P6SM FEW050 FEW100
     FM201400 31007KT P6SM SCT030 BKN050
     FM201700 32010G15KT P6SM VCSH BKN030 BKN040=

USA.gov is the U.S. government's official web portal to all federal, state and local government web resources and services.